sensor_id;sensor_type;location;lat;lon;timestamp;pressure;altitude;pressure_sealevel;temperature;humidity
5703;BME280;2876;51.738;10.050;2022-11-20T00:00:42;98922.09;;;-4.45;94.81
5703;BME280;2876;51.738;10.050;2022-11-20T00:06:44;98911.34;;;-4.53;94.15
5703;BME280;2876;51.738;10.050;2022-11-20T00:12:46;98909.59;;;-4.41;95.11
5703;BME280;2876;51.738;10.050;2022-11-20T00:19:00;98909.84;;;-4.44;94.64
5703;BME280;2876;51.738;10.050;2022-11-20T00:25:03;98911.44;;;-4.54;95.09
5703;BME280;2876;51.738;10.050;2022-11-20T00:31:30;98914.94;;;-4.54;95.00
5703;BME280;2876;51.738;10.050;2022-11-20T00:37:32;98909.66;;;-4.65;94.92
5703;BME280;2876;51.738;10.050;2022-11-20T00:43:42;98907.03;;;-4.65;94.73
5703;BME280;2876;51.738;10.050;2022-11-20T00:49:44;98914.88;;;-4.65;94.25
5703;BME280;2876;51.738;10.050;2022-11-20T00:56:04;98915.72;;;-4.65;93.99
5703;BME280;2876;51.738;10.050;2022-11-20T01:02:06;98907.88;;;-4.65;93.89
5703;BME280;2876;51.738;10.050;2022-11-20T01:08:08;98910.13;;;-4.71;93.87
5703;BME280;2876;51.738;10.050;2022-11-20T01:14:18;98910.34;;;-4.74;93.92
5703;BME280;2876;51.738;10.050;2022-11-20T01:20:20;98906.66;;;-4.72;94.40
5703;BME280;2876;51.738;10.050;2022-11-20T01:26:32;98903.81;;;-4.69;94.86
5703;BME280;2876;51.738;10.050;2022-11-20T01:32:35;98892.16;;;-4.65;94.13
5703;BME280;2876;51.738;10.050;2022-11-20T01:38:37;98891.41;;;-4.78;93.96
5703;BME280;2876;51.738;10.050;2022-11-20T01:44:55;98866.34;;;-4.80;94.89
5703;BME280;2876;51.738;10.050;2022-11-20T01:50:58;98860.22;;;-4.92;95.20
5703;BME280;2876;51.738;10.050;2022-11-20T01:57:02;98849.16;;;-4.96;94.18
5703;BME280;2876;51.738;10.050;2022-11-20T02:03:12;98858.44;;;-4.92;94.88
5703;BME280;2876;51.738;10.050;2022-11-20T02:09:15;98859.41;;;-4.93;94.41
5703;BME280;2876;51.738;10.050;2022-11-20T02:15:17;98850.09;;;-5.08;95.21
5703;BME280;2876;51.738;10.050;2022-11-20T02:21:27;98846.44;;;-4.94;94.97
5703;BME280;2876;51.738;10.050;2022-11-20T02:27:30;98848.66;;;-5.01;94.57
5703;BME280;2876;51.738;10.050;2022-11-20T02:33:32;98840.81;;;-5.01;94.24
5703;BME280;2876;51.738;10.050;2022-11-20T02:39:46;98848.28;;;-5.07;94.10
5703;BME280;2876;51.738;10.050;2022-11-20T02:45:49;98848.19;;;-5.06;94.38
5703;BME280;2876;51.738;10.050;2022-11-20T02:51:53;98840.66;;;-5.11;93.85
5703;BME280;2876;51.738;10.050;2022-11-20T02:57:55;98835.22;;;-5.31;93.37
5703;BME280;2876;51.738;10.050;2022-11-20T03:03:57;98832.41;;;-5.28;93.80
5703;BME280;2876;51.738;10.050;2022-11-20T03:09:59;98844.13;;;-5.34;93.67
5703;BME280;2876;51.738;10.050;2022-11-20T03:16:14;98846.19;;;-5.50;93.24
5703;BME280;2876;51.738;10.050;2022-11-20T03:22:16;98840.91;;;-5.38;93.80
5703;BME280;2876;51.738;10.050;2022-11-20T03:28:18;98834.84;;;-5.38;93.44
5703;BME280;2876;51.738;10.050;2022-11-20T03:34:20;98836.47;;;-5.48;94.26
5703;BME280;2876;51.738;10.050;2022-11-20T03:40:22;98838.75;;;-5.44;94.14
5703;BME280;2876;51.738;10.050;2022-11-20T03:46:25;98835.38;;;-5.70;93.87
5703;BME280;2876;51.738;10.050;2022-11-20T03:52:27;98822.56;;;-5.49;93.65
5703;BME280;2876;51.738;10.050;2022-11-20T03:58:43;98811.31;;;-5.49;93.61
5703;BME280;2876;51.738;10.050;2022-11-20T04:04:45;98803.28;;;-5.59;93.51
5703;BME280;2876;51.738;10.050;2022-11-20T04:10:56;98801.53;;;-5.58;93.92
5703;BME280;2876;51.738;10.050;2022-11-20T04:16:58;98795.44;;;-5.59;93.62
5703;BME280;2876;51.738;10.050;2022-11-20T04:23:00;98806.84;;;-5.60;93.28
5703;BME280;2876;51.738;10.050;2022-11-20T04:29:03;98792.25;;;-5.63;93.41
5703;BME280;2876;51.738;10.050;2022-11-20T04:35:14;98788.69;;;-5.62;93.35
5703;BME280;2876;51.738;10.050;2022-11-20T04:41:20;98793.91;;;-5.62;94.23
5703;BME280;2876;51.738;10.050;2022-11-20T04:47:22;98792.63;;;-5.56;94.43
5703;BME280;2876;51.738;10.050;2022-11-20T04:53:31;98793.56;;;-5.57;94.33
5703;BME280;2876;51.738;10.050;2022-11-20T04:59:33;98799.34;;;-5.65;94.74
5703;BME280;2876;51.738;10.050;2022-11-20T05:05:35;98792.75;;;-5.57;94.07
5703;BME280;2876;51.738;10.050;2022-11-20T05:11:37;98790.84;;;-5.55;94.44
5703;BME280;2876;51.738;10.050;2022-11-20T05:17:39;98790.22;;;-5.59;94.19
5703;BME280;2876;51.738;10.050;2022-11-20T05:23:42;98802.22;;;-5.56;93.94
5703;BME280;2876;51.738;10.050;2022-11-20T05:29:44;98793.06;;;-5.62;93.78
5703;BME280;2876;51.738;10.050;2022-11-20T05:35:46;98790.97;;;-5.57;93.68
5703;BME280;2876;51.738;10.050;2022-11-20T05:41:51;98798.06;;;-5.59;93.06
5703;BME280;2876;51.738;10.050;2022-11-20T05:48:13;98798.88;;;-5.82;92.33
5703;BME280;2876;51.738;10.050;2022-11-20T05:54:15;98782.56;;;-5.97;93.04
5703;BME280;2876;51.738;10.050;2022-11-20T06:00:29;98792.88;;;-5.96;92.48
5703;BME280;2876;51.738;10.050;2022-11-20T06:06:34;98793.22;;;-6.00;92.57
5703;BME280;2876;51.738;10.050;2022-11-20T06:12:41;98796.44;;;-5.97;92.58
5703;BME280;2876;51.738;10.050;2022-11-20T06:18:43;98791.56;;;-6.01;91.60
5703;BME280;2876;51.738;10.050;2022-11-20T06:24:46;98788.06;;;-6.13;91.60
5703;BME280;2876;51.738;10.050;2022-11-20T06:30:48;98789.91;;;-6.15;92.17
5703;BME280;2876;51.738;10.050;2022-11-20T06:36:49;98786.38;;;-6.14;91.86
5703;BME280;2876;51.738;10.050;2022-11-20T06:42:54;98774.25;;;-6.15;92.20
5703;BME280;2876;51.738;10.050;2022-11-20T06:48:56;98783.13;;;-6.18;91.89
5703;BME280;2876;51.738;10.050;2022-11-20T06:55:12;98783.88;;;-6.28;92.28
5703;BME280;2876;51.738;10.050;2022-11-20T07:01:14;98770.50;;;-6.11;92.34
5703;BME280;2876;51.738;10.050;2022-11-20T07:07:17;98769.34;;;-6.07;92.49
5703;BME280;2876;51.738;10.050;2022-11-20T07:13:19;98763.72;;;-5.90;92.84
5703;BME280;2876;51.738;10.050;2022-11-20T07:19:20;98774.66;;;-5.84;92.22
5703;BME280;2876;51.738;10.050;2022-11-20T07:25:24;98784.44;;;-5.75;92.02
5703;BME280;2876;51.738;10.050;2022-11-20T07:31:27;98783.28;;;-5.71;91.58
5703;BME280;2876;51.738;10.050;2022-11-20T07:37:28;98777.94;;;-5.70;92.12
5703;BME280;2876;51.738;10.050;2022-11-20T07:43:31;98776.81;;;-5.54;91.70
5703;BME280;2876;51.738;10.050;2022-11-20T07:49:39;98787.78;;;-5.49;91.58
5703;BME280;2876;51.738;10.050;2022-11-20T07:55:40;98788.66;;;-5.38;91.31
5703;BME280;2876;51.738;10.050;2022-11-20T08:01:43;98780.47;;;-5.33;91.15
5703;BME280;2876;51.738;10.050;2022-11-20T08:07:45;98796.78;;;-5.18;90.96
5703;BME280;2876;51.738;10.050;2022-11-20T08:13:47;98811.50;;;-5.28;90.74
5703;BME280;2876;51.738;10.050;2022-11-20T08:20:08;98813.75;;;-5.35;90.21
5703;BME280;2876;51.738;10.050;2022-11-20T08:26:10;98805.16;;;-5.13;91.13
5703;BME280;2876;51.738;10.050;2022-11-20T08:32:12;98806.75;;;-4.99;91.45
5703;BME280;2876;51.738;10.050;2022-11-20T08:38:14;98816.53;;;-4.79;90.63
5703;BME280;2876;51.738;10.050;2022-11-20T08:44:16;98816.44;;;-4.66;91.45
5703;BME280;2876;51.738;10.050;2022-11-20T08:50:22;98821.09;;;-4.47;91.15
5703;BME280;2876;51.738;10.050;2022-11-20T08:56:25;98814.69;;;-4.32;91.18
5703;BME280;2876;51.738;10.050;2022-11-20T09:02:27;98818.38;;;-4.23;91.03
5703;BME280;2876;51.738;10.050;2022-11-20T09:08:38;98813.63;;;-4.07;90.81
5703;BME280;2876;51.738;10.050;2022-11-20T09:14:41;98813.03;;;-3.99;90.79
5703;BME280;2876;51.738;10.050;2022-11-20T09:20:46;98804.53;;;-3.80;90.44
5703;BME280;2876;51.738;10.050;2022-11-20T09:26:49;98800.22;;;-3.70;90.30
5703;BME280;2876;51.738;10.050;2022-11-20T09:33:01;98787.97;;;-3.38;89.76
5703;BME280;2876;51.738;10.050;2022-11-20T09:39:05;98793.13;;;-3.15;89.03
5703;BME280;2876;51.738;10.050;2022-11-20T09:52:49;98788.72;;;-2.73;88.97
5703;BME280;2876;51.738;10.050;2022-11-20T09:59:08;98774.22;;;-2.46;88.39
5703;BME280;2876;51.738;10.050;2022-11-20T10:05:28;98767.03;;;-2.54;88.10
5703;BME280;2876;51.738;10.050;2022-11-20T10:31:25;98754.56;;;-2.31;87.97
5703;BME280;2876;51.738;10.050;2022-11-20T10:37:35;98761.38;;;-2.09;88.24
5703;BME280;2876;51.738;10.050;2022-11-20T10:44:05;98752.53;;;-1.58;89.23
5703;BME280;2876;51.738;10.050;2022-11-20T10:50:14;98752.63;;;-1.50;88.70
5703;BME280;2876;51.738;10.050;2022-11-20T10:56:38;98746.69;;;-1.23;88.23
5703;BME280;2876;51.738;10.050;2022-11-20T11:02:55;98743.47;;;-0.88;86.90
5703;BME280;2876;51.738;10.050;2022-11-20T11:09:06;98732.53;;;0.37;84.21
5703;BME280;2876;51.738;10.050;2022-11-20T11:15:25;98727.41;;;0.35;82.08
5703;BME280;2876;51.738;10.050;2022-11-20T11:21:35;98708.78;;;0.19;82.53
5703;BME280;2876;51.738;10.050;2022-11-20T11:27:47;98686.72;;;0.20;82.79
5703;BME280;2876;51.738;10.050;2022-11-20T11:33:50;98674.13;;;0.32;81.31
5703;BME280;2876;51.738;10.050;2022-11-20T11:39:53;98664.56;;;0.31;81.10
5703;BME280;2876;51.738;10.050;2022-11-20T11:52:28;98681.53;;;0.28;82.32
5703;BME280;2876;51.738;10.050;2022-11-20T12:04:54;98672.16;;;0.69;81.81
5703;BME280;2876;51.738;10.050;2022-11-20T12:11:14;98655.75;;;0.84;81.14
5703;BME280;2876;51.738;10.050;2022-11-20T12:17:18;98644.91;;;0.87;81.66
5703;BME280;2876;51.738;10.050;2022-11-20T12:30:09;98646.19;;;1.43;79.88
5703;BME280;2876;51.738;10.050;2022-11-20T12:42:52;98644.13;;;3.50;72.97
5703;BME280;2876;51.738;10.050;2022-11-20T12:49:41;98642.31;;;2.79;72.96
5703;BME280;2876;51.738;10.050;2022-11-20T13:09:01;98616.38;;;1.67;76.92
5703;BME280;2876;51.738;10.050;2022-11-20T13:15:42;98618.03;;;1.25;77.51
5703;BME280;2876;51.738;10.050;2022-11-20T13:21:50;98602.63;;;1.47;78.69
5703;BME280;2876;51.738;10.050;2022-11-20T13:28:03;98611.13;;;3.14;76.08
5703;BME280;2876;51.738;10.050;2022-11-20T13:34:32;98621.56;;;4.40;70.25
5703;BME280;2876;51.738;10.050;2022-11-20T13:40:54;98615.44;;;3.54;70.78
5703;BME280;2876;51.738;10.050;2022-11-20T13:46:57;98600.47;;;2.42;71.91
5703;BME280;2876;51.738;10.050;2022-11-20T14:00:17;98592.53;;;0.74;77.91
5703;BME280;2876;51.738;10.050;2022-11-20T14:06:33;98595.31;;;0.46;79.44
5703;BME280;2876;51.738;10.050;2022-11-20T14:12:38;98589.91;;;0.30;81.97
5703;BME280;2876;51.738;10.050;2022-11-20T14:18:40;98579.91;;;0.16;82.08
5703;BME280;2876;51.738;10.050;2022-11-20T14:24:42;98585.34;;;-0.21;83.16
5703;BME280;2876;51.738;10.050;2022-11-20T14:30:47;98580.97;;;-0.31;84.12
5703;BME280;2876;51.738;10.050;2022-11-20T14:36:57;98577.38;;;-0.85;85.62
5703;BME280;2876;51.738;10.050;2022-11-20T14:43:28;98571.41;;;-1.14;87.13
5703;BME280;2876;51.738;10.050;2022-11-20T14:49:31;98563.31;;;-1.31;88.15
5703;BME280;2876;51.738;10.050;2022-11-20T14:55:36;98563.91;;;-1.56;88.45
5703;BME280;2876;51.738;10.050;2022-11-20T15:02:10;98555.75;;;-1.53;88.92
5703;BME280;2876;51.738;10.050;2022-11-20T15:08:13;98548.84;;;-1.64;89.49
5703;BME280;2876;51.738;10.050;2022-11-20T15:14:15;98541.84;;;-1.83;90.41
5703;BME280;2876;51.738;10.050;2022-11-20T15:20:18;98530.09;;;-1.98;90.94
5703;BME280;2876;51.738;10.050;2022-11-20T15:26:26;98532.75;;;-2.17;91.86
5703;BME280;2876;51.738;10.050;2022-11-20T15:32:28;98530.94;;;-1.97;92.89
5703;BME280;2876;51.738;10.050;2022-11-20T15:38:30;98510.06;;;-1.99;92.41
5703;BME280;2876;51.738;10.050;2022-11-20T15:44:32;98503.44;;;-2.13;92.33
5703;BME280;2876;51.738;10.050;2022-11-20T15:50:38;98502.19;;;-2.18;92.73
5703;BME280;2876;51.738;10.050;2022-11-20T15:56:42;98505.78;;;-2.19;94.68
5703;BME280;2876;51.738;10.050;2022-11-20T16:02:44;98495.78;;;-1.87;94.43
5703;BME280;2876;51.738;10.050;2022-11-20T16:08:47;98493.84;;;-1.75;94.00
5703;BME280;2876;51.738;10.050;2022-11-20T16:14:52;98480.00;;;-1.67;94.17
5703;BME280;2876;51.738;10.050;2022-11-20T16:21:14;98477.44;;;-1.59;94.30
5703;BME280;2876;51.738;10.050;2022-11-20T16:27:16;98476.91;;;-1.53;93.94
5703;BME280;2876;51.738;10.050;2022-11-20T16:33:18;98478.09;;;-1.47;95.05
5703;BME280;2876;51.738;10.050;2022-11-20T16:39:20;98477.94;;;-1.36;94.32
5703;BME280;2876;51.738;10.050;2022-11-20T16:45:31;98458.78;;;-1.29;94.87
5703;BME280;2876;51.738;10.050;2022-11-20T16:51:35;98466.66;;;-1.29;94.29
5703;BME280;2876;51.738;10.050;2022-11-20T16:57:37;98467.88;;;-1.23;94.35
5703;BME280;2876;51.738;10.050;2022-11-20T17:03:52;98446.56;;;-1.20;93.81
5703;BME280;2876;51.738;10.050;2022-11-20T17:09:54;98440.78;;;-1.06;93.99
5703;BME280;2876;51.738;10.050;2022-11-20T17:16:14;98422.72;;;-0.91;93.84
5703;BME280;2876;51.738;10.050;2022-11-20T17:22:16;98426.47;;;-0.75;93.96
5703;BME280;2876;51.738;10.050;2022-11-20T17:28:18;98407.34;;;-0.42;92.18
5703;BME280;2876;51.738;10.050;2022-11-20T17:34:32;98416.28;;;-0.35;91.34
5703;BME280;2876;51.738;10.050;2022-11-20T17:40:34;98407.69;;;-0.37;90.89
5703;BME280;2876;51.738;10.050;2022-11-20T17:46:37;98400.38;;;-0.25;91.16
5703;BME280;2876;51.738;10.050;2022-11-20T17:52:39;98398.06;;;-0.28;91.21
5703;BME280;2876;51.738;10.050;2022-11-20T17:58:55;98384.47;;;-0.15;90.84
5703;BME280;2876;51.738;10.050;2022-11-20T18:04:58;98363.63;;;-0.09;91.14
5703;BME280;2876;51.738;10.050;2022-11-20T18:11:08;98358.06;;;0.03;90.85
5703;BME280;2876;51.738;10.050;2022-11-20T18:17:13;98357.28;;;0.10;90.39
5703;BME280;2876;51.738;10.050;2022-11-20T18:23:16;98342.66;;;0.16;89.63
5703;BME280;2876;51.738;10.050;2022-11-20T18:29:18;98345.38;;;0.32;88.99
5703;BME280;2876;51.738;10.050;2022-11-20T18:35:20;98338.75;;;0.28;88.05
5703;BME280;2876;51.738;10.050;2022-11-20T18:41:27;98324.75;;;0.28;88.51
5703;BME280;2876;51.738;10.050;2022-11-20T18:47:57;98321.13;;;0.29;89.04
5703;BME280;2876;51.738;10.050;2022-11-20T18:53:59;98296.38;;;0.21;89.04
5703;BME280;2876;51.738;10.050;2022-11-20T19:00:04;98295.78;;;0.44;88.72
5703;BME280;2876;51.738;10.050;2022-11-20T19:06:13;98297.38;;;0.29;88.27
5703;BME280;2876;51.738;10.050;2022-11-20T19:12:22;98277.63;;;0.41;88.27
5703;BME280;2876;51.738;10.050;2022-11-20T19:18:27;98278.47;;;0.41;88.25
5703;BME280;2876;51.738;10.050;2022-11-20T19:24:29;98271.88;;;0.37;88.07
5703;BME280;2876;51.738;10.050;2022-11-20T19:30:32;98273.19;;;0.33;87.81
5703;BME280;2876;51.738;10.050;2022-11-20T19:36:43;98269.72;;;0.33;87.59
5703;BME280;2876;51.738;10.050;2022-11-20T19:42:46;98266.09;;;0.34;88.70
5703;BME280;2876;51.738;10.050;2022-11-20T19:48:48;98263.81;;;0.47;88.71
5703;BME280;2876;51.738;10.050;2022-11-20T19:54:51;98247.59;;;0.25;89.21
5703;BME280;2876;51.738;10.050;2022-11-20T20:00:53;98248.94;;;0.30;89.51
5703;BME280;2876;51.738;10.050;2022-11-20T20:06:55;98241.03;;;0.30;89.10
5703;BME280;2876;51.738;10.050;2022-11-20T20:13:00;98230.47;;;0.30;89.57
5703;BME280;2876;51.738;10.050;2022-11-20T20:19:03;98226.13;;;0.04;90.60
5703;BME280;2876;51.738;10.050;2022-11-20T20:25:06;98205.44;;;0.34;91.03
5703;BME280;2876;51.738;10.050;2022-11-20T20:31:14;98184.50;;;0.24;92.24
5703;BME280;2876;51.738;10.050;2022-11-20T20:37:25;98176.91;;;0.21;93.58
5703;BME280;2876;51.738;10.050;2022-11-20T20:43:39;98163.56;;;0.22;94.40
5703;BME280;2876;51.738;10.050;2022-11-20T20:50:07;98157.19;;;0.41;94.69
5703;BME280;2876;51.738;10.050;2022-11-20T20:56:09;98142.47;;;0.22;95.68
5703;BME280;2876;51.738;10.050;2022-11-20T21:02:11;98131.44;;;0.27;96.08
5703;BME280;2876;51.738;10.050;2022-11-20T21:08:16;98119.75;;;0.38;96.03
5703;BME280;2876;51.738;10.050;2022-11-20T21:14:27;98113.00;;;0.52;95.15
5703;BME280;2876;51.738;10.050;2022-11-20T21:20:29;98107.84;;;0.58;95.69
5703;BME280;2876;51.738;10.050;2022-11-20T21:26:50;98084.47;;;0.55;95.67
5703;BME280;2876;51.738;10.050;2022-11-20T21:32:53;98073.09;;;0.55;96.06
5703;BME280;2876;51.738;10.050;2022-11-20T21:39:01;98058.06;;;0.63;95.13
5703;BME280;2876;51.738;10.050;2022-11-20T21:45:03;98045.22;;;0.60;95.80
5703;BME280;2876;51.738;10.050;2022-11-20T21:51:11;98041.22;;;0.72;95.49
5703;BME280;2876;51.738;10.050;2022-11-20T21:57:13;98019.66;;;0.69;95.75
5703;BME280;2876;51.738;10.050;2022-11-20T22:03:28;98011.44;;;0.64;95.20
5703;BME280;2876;51.738;10.050;2022-11-20T22:09:40;97998.69;;;0.67;95.18
5703;BME280;2876;51.738;10.050;2022-11-20T22:15:43;97993.94;;;0.63;95.07
5703;BME280;2876;51.738;10.050;2022-11-20T22:22:01;97995.72;;;0.79;95.16
5703;BME280;2876;51.738;10.050;2022-11-20T22:28:21;98004.53;;;0.55;96.14
5703;BME280;2876;51.738;10.050;2022-11-20T22:34:23;97994.25;;;0.68;96.43
5703;BME280;2876;51.738;10.050;2022-11-20T22:40:25;97982.25;;;0.57;96.83
5703;BME280;2876;51.738;10.050;2022-11-20T22:46:39;97973.66;;;0.63;96.68
5703;BME280;2876;51.738;10.050;2022-11-20T22:52:44;97975.31;;;0.64;96.59
5703;BME280;2876;51.738;10.050;2022-11-20T22:58:49;97964.41;;;0.67;95.94
5703;BME280;2876;51.738;10.050;2022-11-20T23:04:51;97967.41;;;0.64;96.97
5703;BME280;2876;51.738;10.050;2022-11-20T23:11:02;97976.78;;;0.67;96.40
5703;BME280;2876;51.738;10.050;2022-11-20T23:17:34;97971.69;;;0.57;96.16
5703;BME280;2876;51.738;10.050;2022-11-20T23:23:39;97967.94;;;0.52;96.65
5703;BME280;2876;51.738;10.050;2022-11-20T23:29:41;97963.25;;;0.70;96.25
5703;BME280;2876;51.738;10.050;2022-11-20T23:35:46;97965.94;;;0.54;97.52
5703;BME280;2876;51.738;10.050;2022-11-20T23:41:48;97957.19;;;0.61;97.28
5703;BME280;2876;51.738;10.050;2022-11-20T23:47:50;97948.88;;;0.72;97.52
5703;BME280;2876;51.738;10.050;2022-11-20T23:53:52;97953.81;;;0.75;97.90
5703;BME280;2876;51.738;10.050;2022-11-20T23:59:55;97950.97;;;0.85;97.48
